sensor_id;sensor_type;location;lat;lon;timestamp;P1;durP1;ratioP1;P2;durP2;ratioP2
20067;SDS011;10194;50.824;7.134;2023-02-11T00:00:08;276.53;;;248.40;;
20067;SDS011;10194;50.824;7.134;2023-02-11T00:02:38;274.83;;;247.50;;
20067;SDS011;10194;50.824;7.134;2023-02-11T00:05:04;281.77;;;253.87;;
20067;SDS011;10194;50.824;7.134;2023-02-11T00:07:31;277.60;;;250.27;;
20067;SDS011;10194;50.824;7.134;2023-02-11T00:09:57;275.33;;;247.90;;
20067;SDS011;10194;50.824;7.134;2023-02-11T00:12:24;279.40;;;251.73;;
20067;SDS011;10194;50.824;7.134;2023-02-11T00:14:50;272.93;;;246.00;;
20067;SDS011;10194;50.824;7.134;2023-02-11T00:17:16;274.87;;;247.70;;
20067;SDS011;10194;50.824;7.134;2023-02-11T00:19:42;280.23;;;252.90;;
20067;SDS011;10194;50.824;7.134;2023-02-11T00:22:08;278.27;;;251.10;;
20067;SDS011;10194;50.824;7.134;2023-02-11T00:24:34;275.47;;;248.70;;
20067;SDS011;10194;50.824;7.134;2023-02-11T00:27:01;275.23;;;248.10;;
20067;SDS011;10194;50.824;7.134;2023-02-11T00:29:26;276.57;;;249.87;;
20067;SDS011;10194;50.824;7.134;2023-02-11T00:31:52;275.53;;;248.20;;
20067;SDS011;10194;50.824;7.134;2023-02-11T00:34:18;272.73;;;245.80;;
20067;SDS011;10194;50.824;7.134;2023-02-11T00:36:44;275.00;;;247.83;;
20067;SDS011;10194;50.824;7.134;2023-02-11T00:39:09;271.83;;;244.83;;
20067;SDS011;10194;50.824;7.134;2023-02-11T00:41:35;274.90;;;247.77;;
20067;SDS011;10194;50.824;7.134;2023-02-11T00:44:01;278.03;;;250.60;;
20067;SDS011;10194;50.824;7.134;2023-02-11T00:46:27;275.67;;;248.57;;
20067;SDS011;10194;50.824;7.134;2023-02-11T00:48:54;274.13;;;246.70;;
20067;SDS011;10194;50.824;7.134;2023-02-11T00:51:22;279.33;;;251.07;;
20067;SDS011;10194;50.824;7.134;2023-02-11T00:53:49;278.67;;;250.93;;
20067;SDS011;10194;50.824;7.134;2023-02-11T00:56:15;278.90;;;251.47;;
20067;SDS011;10194;50.824;7.134;2023-02-11T00:58:43;277.33;;;249.57;;
20067;SDS011;10194;50.824;7.134;2023-02-11T01:01:09;282.67;;;254.97;;
20067;SDS011;10194;50.824;7.134;2023-02-11T01:03:36;278.30;;;250.33;;
20067;SDS011;10194;50.824;7.134;2023-02-11T01:06:02;279.97;;;252.97;;
20067;SDS011;10194;50.824;7.134;2023-02-11T01:08:30;275.33;;;248.07;;
20067;SDS011;10194;50.824;7.134;2023-02-11T01:11:04;282.60;;;254.83;;
20067;SDS011;10194;50.824;7.134;2023-02-11T01:13:34;279.93;;;252.33;;
20067;SDS011;10194;50.824;7.134;2023-02-11T01:16:01;285.67;;;257.37;;
20067;SDS011;10194;50.824;7.134;2023-02-11T01:18:31;277.30;;;249.90;;
20067;SDS011;10194;50.824;7.134;2023-02-11T01:20:57;277.23;;;249.63;;
20067;SDS011;10194;50.824;7.134;2023-02-11T01:23:22;282.77;;;254.83;;
20067;SDS011;10194;50.824;7.134;2023-02-11T01:25:48;281.00;;;253.17;;
20067;SDS011;10194;50.824;7.134;2023-02-11T01:28:15;278.90;;;250.97;;
20067;SDS011;10194;50.824;7.134;2023-02-11T01:30:44;276.53;;;248.67;;
20067;SDS011;10194;50.824;7.134;2023-02-11T01:33:10;275.27;;;247.90;;
20067;SDS011;10194;50.824;7.134;2023-02-11T01:35:37;276.37;;;248.60;;
20067;SDS011;10194;50.824;7.134;2023-02-11T01:38:05;276.37;;;248.90;;
20067;SDS011;10194;50.824;7.134;2023-02-11T01:40:33;277.63;;;249.60;;
20067;SDS011;10194;50.824;7.134;2023-02-11T01:42:59;276.10;;;248.00;;
20067;SDS011;10194;50.824;7.134;2023-02-11T01:48:43;285.00;;;257.47;;
20067;SDS011;10194;50.824;7.134;2023-02-11T01:51:17;279.93;;;252.93;;
20067;SDS011;10194;50.824;7.134;2023-02-11T01:53:48;278.83;;;250.43;;
20067;SDS011;10194;50.824;7.134;2023-02-11T01:56:34;281.67;;;253.97;;
20067;SDS011;10194;50.824;7.134;2023-02-11T01:59:27;286.40;;;258.53;;
20067;SDS011;10194;50.824;7.134;2023-02-11T02:01:58;286.00;;;258.43;;
20067;SDS011;10194;50.824;7.134;2023-02-11T02:04:28;284.80;;;256.43;;
20067;SDS011;10194;50.824;7.134;2023-02-11T02:07:03;286.40;;;258.63;;
20067;SDS011;10194;50.824;7.134;2023-02-11T02:09:36;284.20;;;256.77;;
20067;SDS011;10194;50.824;7.134;2023-02-11T02:12:07;284.50;;;256.47;;
20067;SDS011;10194;50.824;7.134;2023-02-11T02:14:36;284.47;;;256.20;;
20067;SDS011;10194;50.824;7.134;2023-02-11T02:17:04;287.27;;;259.10;;
20067;SDS011;10194;50.824;7.134;2023-02-11T02:38:22;295.93;;;267.93;;
20067;SDS011;10194;50.824;7.134;2023-02-11T02:41:11;293.97;;;265.87;;
20067;SDS011;10194;50.824;7.134;2023-02-11T02:43:41;292.00;;;263.47;;
20067;SDS011;10194;50.824;7.134;2023-02-11T02:46:18;289.43;;;260.90;;
20067;SDS011;10194;50.824;7.134;2023-02-11T02:48:52;290.70;;;262.60;;
20067;SDS011;10194;50.824;7.134;2023-02-11T03:08:50;293.73;;;266.30;;
20067;SDS011;10194;50.824;7.134;2023-02-11T03:11:22;295.73;;;267.70;;
20067;SDS011;10194;50.824;7.134;2023-02-11T03:13:50;292.90;;;264.67;;
20067;SDS011;10194;50.824;7.134;2023-02-11T03:16:26;292.80;;;264.57;;
20067;SDS011;10194;50.824;7.134;2023-02-11T03:18:55;292.70;;;264.40;;
20067;SDS011;10194;50.824;7.134;2023-02-11T03:21:33;290.47;;;262.30;;
20067;SDS011;10194;50.824;7.134;2023-02-11T03:24:07;291.87;;;263.00;;
20067;SDS011;10194;50.824;7.134;2023-02-11T03:26:48;284.57;;;256.40;;
20067;SDS011;10194;50.824;7.134;2023-02-11T03:29:34;281.07;;;252.70;;
20067;SDS011;10194;50.824;7.134;2023-02-11T03:32:13;285.27;;;257.00;;
20067;SDS011;10194;50.824;7.134;2023-02-11T03:34:59;285.90;;;257.17;;
20067;SDS011;10194;50.824;7.134;2023-02-11T03:37:59;285.37;;;256.47;;
20067;SDS011;10194;50.824;7.134;2023-02-11T03:40:31;284.30;;;255.97;;
20067;SDS011;10194;50.824;7.134;2023-02-11T03:45:53;279.27;;;252.50;;
20067;SDS011;10194;50.824;7.134;2023-02-11T03:48:28;273.17;;;246.20;;
20067;SDS011;10194;50.824;7.134;2023-02-11T03:51:03;275.50;;;248.20;;
20067;SDS011;10194;50.824;7.134;2023-02-11T03:53:32;275.37;;;248.53;;
20067;SDS011;10194;50.824;7.134;2023-02-11T03:55:59;275.00;;;248.30;;
20067;SDS011;10194;50.824;7.134;2023-02-11T03:58:29;276.40;;;249.53;;
20067;SDS011;10194;50.824;7.134;2023-02-11T04:00:55;274.93;;;247.50;;
20067;SDS011;10194;50.824;7.134;2023-02-11T04:03:21;277.10;;;249.67;;
20067;SDS011;10194;50.824;7.134;2023-02-11T04:05:47;275.03;;;248.20;;
20067;SDS011;10194;50.824;7.134;2023-02-11T04:08:12;283.20;;;255.80;;
20067;SDS011;10194;50.824;7.134;2023-02-11T04:10:38;277.47;;;249.97;;
20067;SDS011;10194;50.824;7.134;2023-02-11T04:13:04;277.00;;;250.20;;
20067;SDS011;10194;50.824;7.134;2023-02-11T04:15:30;278.97;;;251.23;;
20067;SDS011;10194;50.824;7.134;2023-02-11T04:17:56;276.63;;;249.17;;
20067;SDS011;10194;50.824;7.134;2023-02-11T04:20:22;279.83;;;252.60;;
20067;SDS011;10194;50.824;7.134;2023-02-11T04:22:48;280.83;;;253.20;;
20067;SDS011;10194;50.824;7.134;2023-02-11T04:25:13;279.77;;;252.47;;
20067;SDS011;10194;50.824;7.134;2023-02-11T04:27:39;278.50;;;250.73;;
20067;SDS011;10194;50.824;7.134;2023-02-11T04:30:06;281.40;;;253.63;;
20067;SDS011;10194;50.824;7.134;2023-02-11T04:32:34;281.43;;;253.50;;
20067;SDS011;10194;50.824;7.134;2023-02-11T04:34:59;280.83;;;252.80;;
20067;SDS011;10194;50.824;7.134;2023-02-11T04:37:26;285.03;;;257.13;;
20067;SDS011;10194;50.824;7.134;2023-02-11T04:39:52;284.00;;;255.77;;
20067;SDS011;10194;50.824;7.134;2023-02-11T04:42:18;284.07;;;255.83;;
20067;SDS011;10194;50.824;7.134;2023-02-11T04:44:43;285.20;;;256.50;;
20067;SDS011;10194;50.824;7.134;2023-02-11T04:47:09;287.43;;;257.97;;
20067;SDS011;10194;50.824;7.134;2023-02-11T04:49:37;285.83;;;257.40;;
20067;SDS011;10194;50.824;7.134;2023-02-11T04:52:03;282.93;;;254.47;;
20067;SDS011;10194;50.824;7.134;2023-02-11T04:54:29;287.30;;;257.70;;
20067;SDS011;10194;50.824;7.134;2023-02-11T04:56:55;284.23;;;255.40;;
20067;SDS011;10194;50.824;7.134;2023-02-11T04:59:21;286.03;;;257.37;;
20067;SDS011;10194;50.824;7.134;2023-02-11T05:01:46;284.53;;;255.43;;
20067;SDS011;10194;50.824;7.134;2023-02-11T05:04:13;286.37;;;257.27;;
20067;SDS011;10194;50.824;7.134;2023-02-11T05:06:39;287.60;;;258.77;;
20067;SDS011;10194;50.824;7.134;2023-02-11T05:09:05;287.13;;;257.63;;
20067;SDS011;10194;50.824;7.134;2023-02-11T05:11:31;288.30;;;259.50;;
20067;SDS011;10194;50.824;7.134;2023-02-11T05:14:00;287.83;;;259.00;;
20067;SDS011;10194;50.824;7.134;2023-02-11T05:16:26;288.80;;;259.87;;
20067;SDS011;10194;50.824;7.134;2023-02-11T05:18:52;290.03;;;260.37;;
20067;SDS011;10194;50.824;7.134;2023-02-11T05:21:19;286.60;;;257.63;;
20067;SDS011;10194;50.824;7.134;2023-02-11T05:23:45;289.63;;;260.90;;
20067;SDS011;10194;50.824;7.134;2023-02-11T05:26:12;290.13;;;260.77;;
20067;SDS011;10194;50.824;7.134;2023-02-11T05:28:38;284.73;;;255.93;;
20067;SDS011;10194;50.824;7.134;2023-02-11T05:31:05;290.70;;;261.50;;
20067;SDS011;10194;50.824;7.134;2023-02-11T05:33:31;284.53;;;255.33;;
20067;SDS011;10194;50.824;7.134;2023-02-11T05:36:01;287.33;;;258.40;;
20067;SDS011;10194;50.824;7.134;2023-02-11T05:38:30;288.57;;;259.60;;
20067;SDS011;10194;50.824;7.134;2023-02-11T05:40:57;284.30;;;255.27;;
20067;SDS011;10194;50.824;7.134;2023-02-11T05:43:23;289.07;;;260.53;;
20067;SDS011;10194;50.824;7.134;2023-02-11T05:45:48;292.00;;;263.07;;
20067;SDS011;10194;50.824;7.134;2023-02-11T05:48:14;287.43;;;258.53;;
20067;SDS011;10194;50.824;7.134;2023-02-11T05:50:40;287.90;;;258.70;;
20067;SDS011;10194;50.824;7.134;2023-02-11T05:53:06;283.60;;;255.30;;
20067;SDS011;10194;50.824;7.134;2023-02-11T05:55:32;293.77;;;264.57;;
20067;SDS011;10194;50.824;7.134;2023-02-11T05:57:58;288.10;;;259.27;;
20067;SDS011;10194;50.824;7.134;2023-02-11T06:00:24;285.97;;;258.13;;
20067;SDS011;10194;50.824;7.134;2023-02-11T06:02:51;287.23;;;258.63;;
20067;SDS011;10194;50.824;7.134;2023-02-11T06:05:17;286.50;;;258.27;;
20067;SDS011;10194;50.824;7.134;2023-02-11T06:07:43;282.60;;;254.93;;
20067;SDS011;10194;50.824;7.134;2023-02-11T06:10:09;284.90;;;256.53;;
20067;SDS011;10194;50.824;7.134;2023-02-11T06:12:35;282.33;;;254.50;;
20067;SDS011;10194;50.824;7.134;2023-02-11T06:15:02;283.27;;;255.27;;
20067;SDS011;10194;50.824;7.134;2023-02-11T06:17:29;286.97;;;257.50;;
20067;SDS011;10194;50.824;7.134;2023-02-11T06:19:57;281.20;;;253.77;;
20067;SDS011;10194;50.824;7.134;2023-02-11T06:22:24;280.77;;;253.07;;
20067;SDS011;10194;50.824;7.134;2023-02-11T06:24:50;280.43;;;253.03;;
20067;SDS011;10194;50.824;7.134;2023-02-11T06:27:16;281.30;;;253.67;;
20067;SDS011;10194;50.824;7.134;2023-02-11T06:29:42;283.47;;;256.13;;
20067;SDS011;10194;50.824;7.134;2023-02-11T06:32:09;280.20;;;252.83;;
20067;SDS011;10194;50.824;7.134;2023-02-11T06:34:35;284.27;;;256.60;;
20067;SDS011;10194;50.824;7.134;2023-02-11T06:37:01;282.20;;;254.47;;
20067;SDS011;10194;50.824;7.134;2023-02-11T06:39:27;285.00;;;257.07;;
20067;SDS011;10194;50.824;7.134;2023-02-11T06:41:53;280.87;;;253.30;;
20067;SDS011;10194;50.824;7.134;2023-02-11T06:44:19;281.80;;;254.23;;
20067;SDS011;10194;50.824;7.134;2023-02-11T06:46:45;277.83;;;251.03;;
20067;SDS011;10194;50.824;7.134;2023-02-11T06:49:11;281.40;;;253.60;;
20067;SDS011;10194;50.824;7.134;2023-02-11T06:51:37;281.10;;;253.50;;
20067;SDS011;10194;50.824;7.134;2023-02-11T06:54:03;276.07;;;248.73;;
20067;SDS011;10194;50.824;7.134;2023-02-11T06:56:30;278.20;;;250.93;;
20067;SDS011;10194;50.824;7.134;2023-02-11T06:58:56;272.60;;;245.87;;
20067;SDS011;10194;50.824;7.134;2023-02-11T07:01:23;273.00;;;246.53;;
20067;SDS011;10194;50.824;7.134;2023-02-11T07:03:50;271.50;;;245.50;;
20067;SDS011;10194;50.824;7.134;2023-02-11T07:06:17;270.93;;;244.87;;
20067;SDS011;10194;50.824;7.134;2023-02-11T07:08:45;272.53;;;245.60;;
20067;SDS011;10194;50.824;7.134;2023-02-11T07:11:13;274.57;;;248.03;;
20067;SDS011;10194;50.824;7.134;2023-02-11T07:13:45;274.33;;;247.60;;
20067;SDS011;10194;50.824;7.134;2023-02-11T07:16:13;273.83;;;247.20;;
20067;SDS011;10194;50.824;7.134;2023-02-11T07:18:41;274.50;;;247.27;;
20067;SDS011;10194;50.824;7.134;2023-02-11T07:21:08;275.97;;;249.37;;
20067;SDS011;10194;50.824;7.134;2023-02-11T07:23:37;275.90;;;249.00;;
20067;SDS011;10194;50.824;7.134;2023-02-11T07:26:05;276.23;;;249.80;;
20067;SDS011;10194;50.824;7.134;2023-02-11T07:28:34;277.20;;;250.13;;
20067;SDS011;10194;50.824;7.134;2023-02-11T07:31:08;276.53;;;250.37;;
20067;SDS011;10194;50.824;7.134;2023-02-11T07:33:42;280.60;;;252.87;;
20067;SDS011;10194;50.824;7.134;2023-02-11T07:36:10;280.57;;;253.90;;
20067;SDS011;10194;50.824;7.134;2023-02-11T07:38:37;281.73;;;254.27;;
20067;SDS011;10194;50.824;7.134;2023-02-11T07:41:08;277.97;;;251.27;;
20067;SDS011;10194;50.824;7.134;2023-02-11T07:43:37;281.67;;;254.70;;
20067;SDS011;10194;50.824;7.134;2023-02-11T07:46:05;280.57;;;253.93;;
20067;SDS011;10194;50.824;7.134;2023-02-11T07:48:51;284.53;;;257.63;;
20067;SDS011;10194;50.824;7.134;2023-02-11T07:51:19;283.70;;;257.03;;
20067;SDS011;10194;50.824;7.134;2023-02-11T07:53:56;282.43;;;255.83;;
20067;SDS011;10194;50.824;7.134;2023-02-11T07:56:23;282.20;;;255.50;;
20067;SDS011;10194;50.824;7.134;2023-02-11T07:58:49;279.43;;;252.53;;
20067;SDS011;10194;50.824;7.134;2023-02-11T08:01:16;280.70;;;253.90;;
20067;SDS011;10194;50.824;7.134;2023-02-11T08:03:49;280.00;;;252.63;;
20067;SDS011;10194;50.824;7.134;2023-02-11T08:06:16;277.07;;;250.70;;
20067;SDS011;10194;50.824;7.134;2023-02-11T08:08:44;278.60;;;251.80;;
20067;SDS011;10194;50.824;7.134;2023-02-11T08:11:18;280.23;;;253.23;;
20067;SDS011;10194;50.824;7.134;2023-02-11T08:13:46;288.30;;;261.40;;
20067;SDS011;10194;50.824;7.134;2023-02-11T08:16:18;285.23;;;257.73;;
20067;SDS011;10194;50.824;7.134;2023-02-11T08:18:47;282.77;;;255.73;;
20067;SDS011;10194;50.824;7.134;2023-02-11T08:21:14;284.17;;;257.27;;
20067;SDS011;10194;50.824;7.134;2023-02-11T08:23:41;284.27;;;257.43;;
20067;SDS011;10194;50.824;7.134;2023-02-11T08:26:10;289.13;;;261.47;;
20067;SDS011;10194;50.824;7.134;2023-02-11T08:28:47;283.40;;;255.90;;
20067;SDS011;10194;50.824;7.134;2023-02-11T08:31:17;283.50;;;255.60;;
20067;SDS011;10194;50.824;7.134;2023-02-11T08:33:52;282.53;;;254.60;;
20067;SDS011;10194;50.824;7.134;2023-02-11T08:36:20;284.43;;;256.67;;
20067;SDS011;10194;50.824;7.134;2023-02-11T08:38:49;285.63;;;258.03;;
20067;SDS011;10194;50.824;7.134;2023-02-11T08:41:15;283.93;;;256.13;;
20067;SDS011;10194;50.824;7.134;2023-02-11T08:43:42;278.27;;;251.70;;
20067;SDS011;10194;50.824;7.134;2023-02-11T08:46:13;283.10;;;255.70;;
20067;SDS011;10194;50.824;7.134;2023-02-11T08:48:42;279.67;;;252.60;;
20067;SDS011;10194;50.824;7.134;2023-02-11T08:51:09;284.30;;;257.07;;
20067;SDS011;10194;50.824;7.134;2023-02-11T08:53:39;285.47;;;258.73;;
20067;SDS011;10194;50.824;7.134;2023-02-11T08:56:05;281.10;;;254.43;;
20067;SDS011;10194;50.824;7.134;2023-02-11T08:58:31;277.77;;;251.13;;
20067;SDS011;10194;50.824;7.134;2023-02-11T09:00:57;279.73;;;253.27;;
20067;SDS011;10194;50.824;7.134;2023-02-11T09:03:23;280.93;;;253.33;;
20067;SDS011;10194;50.824;7.134;2023-02-11T09:05:49;278.60;;;251.50;;
20067;SDS011;10194;50.824;7.134;2023-02-11T09:08:20;281.77;;;255.00;;
20067;SDS011;10194;50.824;7.134;2023-02-11T09:10:46;280.90;;;254.00;;
20067;SDS011;10194;50.824;7.134;2023-02-11T09:13:12;277.27;;;250.97;;
20067;SDS011;10194;50.824;7.134;2023-02-11T09:15:38;281.47;;;254.33;;
20067;SDS011;10194;50.824;7.134;2023-02-11T09:18:04;281.10;;;253.77;;
20067;SDS011;10194;50.824;7.134;2023-02-11T09:20:30;282.73;;;254.83;;
20067;SDS011;10194;50.824;7.134;2023-02-11T09:22:56;279.10;;;251.87;;
20067;SDS011;10194;50.824;7.134;2023-02-11T09:25:23;276.17;;;249.80;;
20067;SDS011;10194;50.824;7.134;2023-02-11T09:27:49;277.10;;;250.07;;
20067;SDS011;10194;50.824;7.134;2023-02-11T09:30:16;287.93;;;259.53;;
20067;SDS011;10194;50.824;7.134;2023-02-11T09:32:42;282.30;;;254.30;;
20067;SDS011;10194;50.824;7.134;2023-02-11T09:35:08;275.93;;;249.30;;
20067;SDS011;10194;50.824;7.134;2023-02-11T09:37:33;276.60;;;249.60;;
20067;SDS011;10194;50.824;7.134;2023-02-11T09:39:59;280.23;;;253.10;;
20067;SDS011;10194;50.824;7.134;2023-02-11T09:45:19;280.33;;;253.10;;
20067;SDS011;10194;50.824;7.134;2023-02-11T09:47:52;282.50;;;254.23;;
20067;SDS011;10194;50.824;7.134;2023-02-11T09:50:28;281.50;;;253.27;;
20067;SDS011;10194;50.824;7.134;2023-02-11T09:53:17;282.87;;;255.67;;
20067;SDS011;10194;50.824;7.134;2023-02-11T09:55:54;282.17;;;254.83;;
20067;SDS011;10194;50.824;7.134;2023-02-11T09:58:27;285.20;;;257.43;;
20067;SDS011;10194;50.824;7.134;2023-02-11T10:01:02;281.77;;;254.27;;
20067;SDS011;10194;50.824;7.134;2023-02-11T10:13:10;289.03;;;260.93;;
20067;SDS011;10194;50.824;7.134;2023-02-11T10:16:28;283.80;;;256.10;;
20067;SDS011;10194;50.824;7.134;2023-02-11T10:25:17;287.27;;;259.47;;
20067;SDS011;10194;50.824;7.134;2023-02-11T10:27:58;280.03;;;252.77;;
20067;SDS011;10194;50.824;7.134;2023-02-11T10:30:30;282.90;;;254.80;;
20067;SDS011;10194;50.824;7.134;2023-02-11T10:33:00;283.20;;;254.70;;
20067;SDS011;10194;50.824;7.134;2023-02-11T10:35:31;280.47;;;252.33;;
20067;SDS011;10194;50.824;7.134;2023-02-11T10:37:57;274.03;;;247.10;;
20067;SDS011;10194;50.824;7.134;2023-02-11T10:40:25;270.50;;;242.83;;
20067;SDS011;10194;50.824;7.134;2023-02-11T10:42:54;271.97;;;244.53;;
20067;SDS011;10194;50.824;7.134;2023-02-11T10:45:29;276.33;;;248.33;;
20067;SDS011;10194;50.824;7.134;2023-02-11T10:47:59;278.97;;;251.30;;
20067;SDS011;10194;50.824;7.134;2023-02-11T10:50:27;273.33;;;245.63;;
20067;SDS011;10194;50.824;7.134;2023-02-11T10:55:54;272.77;;;245.13;;
20067;SDS011;10194;50.824;7.134;2023-02-11T10:58:22;272.50;;;245.20;;
20067;SDS011;10194;50.824;7.134;2023-02-11T11:00:55;272.63;;;244.73;;
20067;SDS011;10194;50.824;7.134;2023-02-11T11:03:23;271.83;;;243.80;;
20067;SDS011;10194;50.824;7.134;2023-02-11T11:06:00;263.00;;;236.53;;
20067;SDS011;10194;50.824;7.134;2023-02-11T11:08:50;269.30;;;242.33;;
20067;SDS011;10194;50.824;7.134;2023-02-11T11:11:16;277.50;;;249.57;;
20067;SDS011;10194;50.824;7.134;2023-02-11T11:13:58;270.80;;;243.30;;
20067;SDS011;10194;50.824;7.134;2023-02-11T11:16:29;271.90;;;244.30;;
20067;SDS011;10194;50.824;7.134;2023-02-11T11:21:39;269.00;;;241.63;;
20067;SDS011;10194;50.824;7.134;2023-02-11T11:24:05;271.27;;;244.07;;
20067;SDS011;10194;50.824;7.134;2023-02-11T11:26:44;274.67;;;247.67;;
20067;SDS011;10194;50.824;7.134;2023-02-11T11:29:15;278.93;;;251.37;;
20067;SDS011;10194;50.824;7.134;2023-02-11T11:31:53;284.77;;;256.70;;
20067;SDS011;10194;50.824;7.134;2023-02-11T11:37:25;278.07;;;250.10;;
20067;SDS011;10194;50.824;7.134;2023-02-11T11:43:00;277.73;;;250.13;;
20067;SDS011;10194;50.824;7.134;2023-02-11T11:45:29;277.93;;;250.50;;
20067;SDS011;10194;50.824;7.134;2023-02-11T11:56:12;277.27;;;249.70;;
20067;SDS011;10194;50.824;7.134;2023-02-11T11:58:41;276.10;;;248.37;;
20067;SDS011;10194;50.824;7.134;2023-02-11T12:12:51;273.47;;;246.60;;
20067;SDS011;10194;50.824;7.134;2023-02-11T12:15:30;279.60;;;251.87;;
20067;SDS011;10194;50.824;7.134;2023-02-11T12:18:14;267.53;;;240.63;;
20067;SDS011;10194;50.824;7.134;2023-02-11T12:24:22;272.30;;;244.87;;
20067;SDS011;10194;50.824;7.134;2023-02-11T12:27:11;266.43;;;239.57;;
20067;SDS011;10194;50.824;7.134;2023-02-11T12:36:13;267.27;;;240.07;;
20067;SDS011;10194;50.824;7.134;2023-02-11T12:56:04;259.37;;;232.47;;
20067;SDS011;10194;50.824;7.134;2023-02-11T12:58:38;254.13;;;227.43;;
20067;SDS011;10194;50.824;7.134;2023-02-11T13:01:14;253.13;;;226.10;;
20067;SDS011;10194;50.824;7.134;2023-02-11T13:03:52;245.13;;;217.60;;
20067;SDS011;10194;50.824;7.134;2023-02-11T13:06:26;242.90;;;216.57;;
20067;SDS011;10194;50.824;7.134;2023-02-11T13:09:05;254.13;;;225.43;;
20067;SDS011;10194;50.824;7.134;2023-02-11T13:11:53;248.50;;;221.70;;
20067;SDS011;10194;50.824;7.134;2023-02-11T13:17:02;248.93;;;220.90;;
20067;SDS011;10194;50.824;7.134;2023-02-11T13:19:42;244.90;;;218.13;;
20067;SDS011;10194;50.824;7.134;2023-02-11T13:22:49;238.93;;;209.03;;
20067;SDS011;10194;50.824;7.134;2023-02-11T13:25:28;243.07;;;216.43;;
20067;SDS011;10194;50.824;7.134;2023-02-11T13:28:35;244.40;;;217.53;;
20067;SDS011;10194;50.824;7.134;2023-02-11T13:31:09;240.67;;;209.60;;
20067;SDS011;10194;50.824;7.134;2023-02-11T13:33:40;250.20;;;223.00;;
20067;SDS011;10194;50.824;7.134;2023-02-11T13:38:36;242.83;;;213.13;;
20067;SDS011;10194;50.824;7.134;2023-02-11T13:43:42;251.10;;;223.60;;
20067;SDS011;10194;50.824;7.134;2023-02-11T13:46:12;254.67;;;224.73;;
20067;SDS011;10194;50.824;7.134;2023-02-11T13:48:49;255.77;;;227.87;;
20067;SDS011;10194;50.824;7.134;2023-02-11T13:51:33;256.23;;;228.33;;
20067;SDS011;10194;50.824;7.134;2023-02-11T13:54:01;258.53;;;231.03;;
20067;SDS011;10194;50.824;7.134;2023-02-11T13:56:32;254.57;;;226.77;;
20067;SDS011;10194;50.824;7.134;2023-02-11T13:59:50;256.27;;;228.20;;
20067;SDS011;10194;50.824;7.134;2023-02-11T14:10:53;254.67;;;221.07;;
20067;SDS011;10194;50.824;7.134;2023-02-11T14:13:24;252.63;;;223.93;;
20067;SDS011;10194;50.824;7.134;2023-02-11T14:16:07;254.70;;;216.47;;
20067;SDS011;10194;50.824;7.134;2023-02-11T14:21:13;246.93;;;218.90;;
20067;SDS011;10194;50.824;7.134;2023-02-11T14:26:33;248.50;;;217.20;;
20067;SDS011;10194;50.824;7.134;2023-02-11T14:29:19;249.37;;;217.70;;
20067;SDS011;10194;50.824;7.134;2023-02-11T14:38:21;249.07;;;221.00;;
20067;SDS011;10194;50.824;7.134;2023-02-11T14:41:12;246.97;;;215.47;;
20067;SDS011;10194;50.824;7.134;2023-02-11T14:43:47;247.40;;;209.93;;
20067;SDS011;10194;50.824;7.134;2023-02-11T14:46:25;245.43;;;205.00;;
20067;SDS011;10194;50.824;7.134;2023-02-11T14:48:55;253.03;;;214.43;;
20067;SDS011;10194;50.824;7.134;2023-02-11T14:51:25;251.80;;;206.67;;
20067;SDS011;10194;50.824;7.134;2023-02-11T14:54:00;247.83;;;206.73;;
20067;SDS011;10194;50.824;7.134;2023-02-11T14:56:36;241.17;;;205.67;;
20067;SDS011;10194;50.824;7.134;2023-02-11T14:59:12;248.00;;;201.63;;
20067;SDS011;10194;50.824;7.134;2023-02-11T15:01:44;247.20;;;217.23;;
20067;SDS011;10194;50.824;7.134;2023-02-11T15:04:25;245.97;;;198.37;;
20067;SDS011;10194;50.824;7.134;2023-02-11T15:07:03;253.60;;;204.20;;
20067;SDS011;10194;50.824;7.134;2023-02-11T15:09:33;248.93;;;206.43;;
20067;SDS011;10194;50.824;7.134;2023-02-11T15:12:22;245.53;;;202.20;;
20067;SDS011;10194;50.824;7.134;2023-02-11T15:14:54;247.90;;;203.63;;
20067;SDS011;10194;50.824;7.134;2023-02-11T15:17:23;247.17;;;196.47;;
20067;SDS011;10194;50.824;7.134;2023-02-11T15:19:54;243.23;;;191.63;;
20067;SDS011;10194;50.824;7.134;2023-02-11T15:22:25;246.53;;;191.53;;
20067;SDS011;10194;50.824;7.134;2023-02-11T15:27:38;249.03;;;193.27;;
20067;SDS011;10194;50.824;7.134;2023-02-11T15:32:47;246.43;;;193.10;;
20067;SDS011;10194;50.824;7.134;2023-02-11T15:35:28;243.70;;;196.63;;
20067;SDS011;10194;50.824;7.134;2023-02-11T15:37:56;246.13;;;187.33;;
20067;SDS011;10194;50.824;7.134;2023-02-11T15:40:24;241.40;;;185.67;;
20067;SDS011;10194;50.824;7.134;2023-02-11T15:45:34;254.43;;;183.47;;
20067;SDS011;10194;50.824;7.134;2023-02-11T15:48:21;245.63;;;173.83;;
20067;SDS011;10194;50.824;7.134;2023-02-11T15:50:54;241.60;;;170.00;;
20067;SDS011;10194;50.824;7.134;2023-02-11T15:53:35;250.77;;;173.63;;
20067;SDS011;10194;50.824;7.134;2023-02-11T15:56:09;240.33;;;169.17;;
20067;SDS011;10194;50.824;7.134;2023-02-11T15:58:43;242.53;;;173.77;;
20067;SDS011;10194;50.824;7.134;2023-02-11T16:01:12;247.27;;;175.60;;
20067;SDS011;10194;50.824;7.134;2023-02-11T16:03:39;238.17;;;173.27;;
20067;SDS011;10194;50.824;7.134;2023-02-11T16:09:00;245.73;;;167.87;;
20067;SDS011;10194;50.824;7.134;2023-02-11T16:11:31;242.93;;;182.53;;
20067;SDS011;10194;50.824;7.134;2023-02-11T16:14:00;241.00;;;176.43;;
20067;SDS011;10194;50.824;7.134;2023-02-11T16:16:44;252.03;;;175.03;;
20067;SDS011;10194;50.824;7.134;2023-02-11T16:19:15;251.73;;;177.03;;
20067;SDS011;10194;50.824;7.134;2023-02-11T16:21:44;246.43;;;171.73;;
20067;SDS011;10194;50.824;7.134;2023-02-11T16:24:18;247.40;;;167.77;;
20067;SDS011;10194;50.824;7.134;2023-02-11T16:26:53;250.77;;;177.60;;
20067;SDS011;10194;50.824;7.134;2023-02-11T16:29:26;247.70;;;180.03;;
20067;SDS011;10194;50.824;7.134;2023-02-11T16:32:30;244.97;;;174.57;;
20067;SDS011;10194;50.824;7.134;2023-02-11T16:34:52;246.47;;;175.37;;
20067;SDS011;10194;50.824;7.134;2023-02-11T16:37:21;242.40;;;165.47;;
20067;SDS011;10194;50.824;7.134;2023-02-11T16:39:48;248.13;;;165.23;;
20067;SDS011;10194;50.824;7.134;2023-02-11T16:42:18;244.23;;;165.80;;
20067;SDS011;10194;50.824;7.134;2023-02-11T16:44:44;251.40;;;168.23;;
20067;SDS011;10194;50.824;7.134;2023-02-11T16:47:16;242.80;;;170.60;;
20067;SDS011;10194;50.824;7.134;2023-02-11T16:49:48;248.60;;;170.03;;
20067;SDS011;10194;50.824;7.134;2023-02-11T16:52:14;272.63;;;241.53;;
20067;SDS011;10194;50.824;7.134;2023-02-11T16:54:42;248.63;;;169.50;;